createdAt,value
2022-09-17T00:00:22.022Z,10.83
2022-09-17T00:02:55.722Z,10.82
2022-09-17T00:05:28.348Z,10.82
2022-09-17T00:07:57.952Z,10.82
2022-09-17T00:10:28.190Z,10.85
2022-09-17T00:12:58.260Z,10.83
2022-09-17T00:15:27.875Z,10.83
2022-09-17T00:17:58.592Z,10.83
2022-09-17T00:20:30.844Z,10.81
2022-09-17T00:23:00.409Z,10.79
2022-09-17T00:25:30.005Z,10.77
2022-09-17T00:27:59.555Z,10.81
2022-09-17T00:30:29.094Z,10.78
2022-09-17T00:32:58.652Z,10.73
2022-09-17T00:35:30.950Z,10.69
2022-09-17T00:38:00.614Z,10.64
2022-09-17T00:40:30.359Z,10.67
2022-09-17T00:42:59.950Z,10.65
2022-09-17T00:45:30.099Z,10.68
2022-09-17T00:48:01.549Z,10.68
2022-09-17T00:50:37.827Z,10.69
2022-09-17T00:53:09.560Z,10.73
2022-09-17T00:55:41.735Z,10.78
2022-09-17T00:58:14.180Z,10.79
2022-09-17T01:00:46.292Z,10.76
2022-09-17T01:03:16.297Z,10.73
2022-09-17T01:05:51.814Z,10.72
2022-09-17T01:08:28.587Z,10.72
2022-09-17T01:11:22.888Z,10.66
2022-09-17T01:13:59.929Z,10.60
2022-09-17T01:16:34.950Z,10.60
2022-09-17T01:19:23.111Z,10.59
2022-09-17T01:22:03.963Z,10.60
2022-09-17T01:24:50.041Z,10.60
2022-09-17T01:27:51.631Z,10.58
2022-09-17T01:30:43.829Z,10.57
2022-09-17T01:33:20.168Z,10.54
2022-09-17T01:35:54.081Z,10.55
2022-09-17T01:38:29.250Z,10.54
2022-09-17T01:41:02.386Z,10.55
2022-09-17T01:43:37.049Z,10.49
2022-09-17T01:46:12.220Z,10.44
2022-09-17T01:48:50.281Z,10.46
2022-09-17T01:51:23.025Z,10.41
2022-09-17T01:53:57.975Z,10.39
2022-09-17T01:56:31.009Z,10.40
2022-09-17T01:59:04.929Z,10.36
2022-09-17T02:01:35.269Z,10.39
2022-09-17T02:04:11.354Z,10.40
2022-09-17T02:06:44.447Z,10.47
2022-09-17T02:09:18.260Z,10.51
2022-09-17T02:11:52.060Z,10.52
2022-09-17T02:14:24.002Z,10.49
2022-09-17T02:16:56.323Z,10.54
2022-09-17T02:19:31.559Z,10.55
2022-09-17T02:22:04.898Z,10.51
2022-09-17T02:24:38.390Z,10.54
2022-09-17T02:27:10.926Z,10.53
2022-09-17T02:29:42.893Z,10.56
2022-09-17T02:32:13.078Z,10.55
2022-09-17T02:34:45.332Z,10.53
2022-09-17T02:37:15.165Z,10.49
2022-09-17T02:39:45.297Z,10.49
2022-09-17T02:42:24.964Z,10.52
2022-09-17T02:45:02.481Z,10.53
2022-09-17T02:47:41.076Z,10.53
2022-09-17T02:50:22.688Z,10.49
2022-09-17T02:53:00.835Z,10.48
2022-09-17T02:55:35.807Z,10.50
2022-09-17T02:58:12.664Z,10.48
2022-09-17T03:00:43.098Z,10.46
2022-09-17T03:03:15.527Z,10.47
2022-09-17T03:05:47.811Z,10.40
2022-09-17T03:08:20.211Z,10.41
2022-09-17T03:10:50.344Z,10.38
2022-09-17T03:13:20.285Z,10.39
2022-09-17T03:15:49.972Z,10.33
2022-09-17T03:18:19.597Z,10.34
2022-09-17T03:20:51.886Z,10.35
2022-09-17T03:23:21.573Z,10.34
2022-09-17T03:25:52.074Z,10.36
2022-09-17T03:28:21.638Z,10.39
2022-09-17T03:30:51.267Z,10.40
2022-09-17T03:33:20.890Z,10.31
2022-09-17T03:35:53.100Z,10.27
2022-09-17T03:38:22.702Z,10.27
2022-09-17T03:41:00.621Z,10.27
2022-09-17T03:43:30.380Z,10.26
2022-09-17T03:46:00.432Z,10.29
2022-09-17T03:48:30.398Z,10.28
2022-09-17T03:51:02.681Z,10.31
2022-09-17T03:53:32.345Z,10.31
2022-09-17T03:56:02.211Z,10.33
2022-09-17T03:58:32.636Z,10.33
2022-09-17T04:01:03.486Z,10.34
2022-09-17T04:03:33.516Z,10.35
2022-09-17T04:06:05.956Z,10.35
2022-09-17T04:08:36.672Z,10.34
2022-09-17T04:11:07.824Z,10.36
2022-09-17T04:13:37.648Z,10.36
2022-09-17T04:16:07.453Z,10.36
2022-09-17T04:18:37.319Z,10.35
2022-09-17T04:21:09.815Z,10.36
2022-09-17T04:23:39.371Z,10.40
2022-09-17T04:26:09.044Z,10.35
2022-09-17T04:28:38.611Z,10.35
2022-09-17T04:31:08.367Z,10.33
2022-09-17T04:33:38.019Z,10.32
2022-09-17T04:36:10.306Z,10.29
2022-09-17T04:38:39.923Z,10.28
2022-09-17T04:41:10.011Z,10.29
2022-09-17T04:43:39.671Z,10.32
2022-09-17T04:46:09.516Z,10.28
2022-09-17T04:48:39.274Z,10.28
2022-09-17T04:51:11.551Z,10.28
2022-09-17T04:53:41.206Z,10.30
2022-09-17T04:56:10.818Z,10.32
2022-09-17T04:58:40.506Z,10.32
2022-09-17T05:01:11.097Z,10.30
2022-09-17T05:03:40.762Z,10.32
2022-09-17T05:06:13.165Z,10.34
2022-09-17T05:08:42.762Z,10.34
2022-09-17T05:11:12.295Z,10.35
2022-09-17T05:13:42.090Z,10.36
2022-09-17T05:16:12.081Z,10.35
2022-09-17T05:18:41.731Z,10.35
2022-09-17T05:21:14.287Z,10.35
2022-09-17T05:23:43.851Z,10.36
2022-09-17T05:26:13.656Z,10.38
2022-09-17T05:28:43.363Z,10.37
2022-09-17T05:31:13.609Z,10.36
2022-09-17T05:33:43.340Z,10.36
2022-09-17T05:36:15.519Z,10.35
2022-09-17T05:38:45.147Z,10.35
2022-09-17T05:41:14.892Z,10.34
2022-09-17T05:43:46.275Z,10.34
2022-09-17T05:46:15.957Z,10.38
2022-09-17T05:48:46.346Z,10.40
2022-09-17T05:51:18.996Z,10.39
2022-09-17T05:53:48.619Z,10.38
2022-09-17T05:56:19.465Z,10.42
2022-09-17T05:58:49.190Z,10.43
2022-09-17T06:01:19.053Z,10.45
2022-09-17T06:18:17.156Z,10.50
2022-09-17T06:20:46.784Z,10.46
2022-09-17T06:23:16.484Z,10.44
2022-09-17T06:25:46.044Z,10.50
2022-09-17T06:28:15.606Z,10.45
2022-09-17T06:30:45.167Z,10.47
2022-09-17T06:33:17.488Z,10.48
2022-09-17T06:35:47.319Z,10.47
2022-09-17T06:38:16.935Z,10.46
2022-09-17T06:40:46.750Z,10.45
2022-09-17T06:43:16.294Z,10.43
2022-09-17T06:45:46.033Z,10.38
2022-09-17T06:48:18.556Z,10.38
2022-09-17T06:50:48.509Z,10.42
2022-09-17T06:53:19.998Z,10.43
2022-09-17T06:55:49.703Z,10.41
2022-09-17T06:58:19.387Z,10.45
2022-09-17T07:00:49.100Z,10.54
2022-09-17T07:03:23.368Z,10.60
2022-09-17T07:05:53.120Z,10.58
2022-09-17T07:08:22.664Z,10.66
2022-09-17T07:10:52.500Z,10.71
2022-09-17T07:13:22.087Z,10.68
2022-09-17T07:15:56.160Z,10.73
2022-09-17T07:18:28.683Z,10.78
2022-09-17T07:20:59.134Z,10.64
2022-09-17T07:23:29.889Z,10.65
2022-09-17T07:26:00.931Z,10.65
2022-09-17T07:28:31.531Z,10.65
2022-09-17T07:31:01.132Z,10.72
2022-09-17T07:33:33.326Z,10.72
2022-09-17T07:36:04.952Z,10.74
2022-09-17T07:38:35.190Z,10.83
2022-09-17T07:41:06.093Z,10.93
2022-09-17T07:43:37.583Z,11.02
2022-09-17T07:46:08.805Z,11.06
2022-09-17T07:48:41.041Z,11.10
2022-09-17T07:51:10.660Z,11.15
2022-09-17T07:53:40.307Z,11.15
2022-09-17T07:56:12.007Z,11.16
2022-09-17T07:58:42.267Z,11.17
2022-09-17T08:01:13.563Z,11.20
2022-09-17T08:03:46.934Z,11.22
2022-09-17T08:06:18.498Z,11.34
2022-09-17T08:08:48.546Z,11.39
2022-09-17T08:11:38.184Z,11.40
2022-09-17T08:14:09.132Z,11.49
2022-09-17T08:16:38.791Z,11.54
2022-09-17T08:19:11.685Z,11.59
2022-09-17T08:21:41.500Z,11.65
2022-09-17T08:24:11.498Z,11.75
2022-09-17T08:26:41.485Z,11.88
2022-09-17T08:29:11.351Z,11.96
2022-09-17T08:31:41.096Z,12.04
2022-09-17T08:34:13.956Z,12.16
2022-09-17T08:36:43.627Z,12.24
2022-09-17T08:39:13.266Z,12.34
2022-09-17T08:41:55.201Z,12.47
2022-09-17T08:44:28.083Z,12.51
2022-09-17T08:47:06.305Z,12.66
2022-09-17T08:49:39.950Z,12.67
2022-09-17T08:52:33.082Z,12.64
2022-09-17T08:55:11.676Z,12.65
2022-09-17T08:57:48.845Z,12.72
2022-09-17T09:00:20.423Z,12.83
2022-09-17T12:58:14.913Z,11.92
2022-09-17T13:00:49.201Z,12.10
2022-09-17T13:03:23.261Z,12.26
2022-09-17T13:06:13.617Z,12.34
2022-09-17T13:09:21.683Z,12.41
2022-09-17T13:12:04.716Z,12.53
2022-09-17T13:14:51.996Z,12.67
2022-09-17T13:17:28.541Z,12.73
2022-09-17T13:20:04.530Z,12.84
2022-09-17T13:22:35.251Z,12.86
2022-09-17T13:25:07.234Z,12.97
2022-09-17T13:27:37.708Z,13.07
2022-09-17T13:30:11.952Z,13.09
2022-09-17T13:32:55.633Z,13.20
2022-09-17T13:35:49.338Z,13.33
2022-09-17T13:38:23.121Z,13.44
2022-09-17T13:40:54.234Z,13.57
2022-09-17T13:43:27.841Z,13.63
2022-09-17T13:46:15.655Z,13.58
2022-09-17T13:48:51.982Z,13.57
2022-09-17T13:51:52.272Z,13.48
2022-09-17T13:54:24.386Z,13.34
2022-09-17T13:57:07.941Z,13.32
2022-09-17T13:59:39.142Z,13.10
2022-09-17T14:02:39.401Z,12.79
2022-09-17T14:05:24.128Z,12.54
2022-09-17T14:07:55.544Z,12.35
2022-09-17T14:10:32.002Z,12.21
2022-09-17T14:13:18.932Z,12.16
2022-09-17T14:16:01.763Z,12.07
2022-09-17T14:18:40.912Z,11.96
2022-09-17T14:21:15.286Z,12.01
2022-09-17T14:23:45.566Z,11.99
2022-09-17T14:26:16.952Z,11.97
2022-09-17T14:28:47.635Z,12.03
2022-09-17T14:31:19.804Z,12.10
2022-09-17T14:33:51.710Z,12.17
2022-09-17T14:36:21.439Z,12.15
2022-09-17T14:38:51.053Z,12.27
2022-09-17T14:41:21.853Z,12.38
2022-09-17T14:43:52.362Z,12.35
2022-09-17T14:46:24.491Z,12.35
2022-09-17T14:48:56.829Z,12.30
2022-09-17T14:51:31.774Z,12.25
2022-09-17T14:54:26.326Z,12.22
2022-09-17T14:57:03.722Z,12.25
2022-09-17T14:59:43.769Z,12.27
2022-09-17T15:02:32.585Z,12.29
2022-09-17T15:05:06.070Z,12.37
2022-09-17T15:07:35.716Z,12.41
2022-09-17T15:10:15.646Z,12.47
2022-09-17T15:12:46.003Z,12.44
2022-09-17T15:15:21.064Z,12.51
2022-09-17T15:17:51.285Z,12.56
2022-09-17T15:20:25.689Z,12.58
2022-09-17T15:22:59.050Z,12.61
2022-09-17T15:25:32.397Z,12.60
2022-09-17T15:28:07.959Z,12.62
2022-09-17T15:30:37.915Z,12.62
2022-09-17T15:33:12.541Z,12.60
2022-09-17T15:35:45.003Z,12.60
2022-09-17T15:38:28.123Z,12.57
2022-09-17T15:40:58.280Z,12.55
2022-09-17T15:43:30.255Z,12.63
2022-09-17T15:46:01.528Z,12.59
2022-09-17T15:48:39.639Z,12.59
2022-09-17T15:51:26.255Z,12.50
2022-09-17T15:53:57.391Z,12.45
2022-09-17T15:56:28.951Z,12.30
2022-09-17T15:59:03.204Z,12.20
2022-09-17T16:01:56.495Z,12.08
2022-09-17T16:04:31.178Z,12.00
2022-09-17T16:07:32.777Z,11.92
2022-09-17T16:10:02.419Z,11.82
2022-09-17T16:12:32.023Z,11.76
2022-09-17T16:15:03.169Z,11.69
2022-09-17T16:17:43.246Z,11.61
2022-09-17T16:20:18.001Z,11.52
2022-09-17T16:22:50.763Z,11.43
2022-09-17T16:25:21.136Z,11.39
2022-09-17T16:27:53.786Z,11.34
2022-09-17T16:30:24.775Z,11.29
2022-09-17T16:32:54.789Z,11.25
2022-09-17T16:35:25.825Z,11.23
2022-09-17T16:37:59.080Z,11.23
2022-09-17T16:40:31.195Z,11.26
2022-09-17T16:43:03.303Z,11.27
2022-09-17T16:45:33.519Z,11.28
2022-09-17T16:48:03.274Z,11.27
2022-09-17T16:50:33.088Z,11.26
2022-09-17T16:53:06.437Z,11.28
2022-09-17T16:55:36.016Z,11.29
2022-09-17T16:58:05.599Z,11.29
2022-09-17T17:00:36.685Z,11.32
2022-09-17T17:03:07.599Z,11.33
2022-09-17T17:05:39.590Z,11.29
2022-09-17T17:08:14.525Z,11.28
2022-09-17T17:10:44.350Z,11.25
2022-09-17T17:13:14.013Z,11.21
2022-09-17T17:15:44.072Z,11.16
2022-09-17T17:18:13.730Z,11.14
2022-09-17T17:20:43.343Z,11.13
2022-09-17T17:23:15.579Z,11.09
2022-09-17T17:25:45.217Z,11.06
2022-09-17T17:28:15.001Z,11.02
2022-09-17T17:30:44.797Z,10.98
2022-09-17T17:33:14.373Z,10.96
2022-09-17T17:35:45.490Z,10.95
2022-09-17T17:38:19.904Z,10.91
2022-09-17T17:40:49.594Z,10.90
2022-09-17T17:43:19.199Z,10.85
2022-09-17T17:45:48.890Z,10.86
2022-09-17T17:48:18.479Z,10.84
2022-09-17T17:50:48.355Z,10.78
2022-09-17T17:53:20.731Z,10.78
2022-09-17T17:55:59.570Z,10.76
2022-09-17T17:58:29.548Z,10.80
2022-09-17T18:00:59.202Z,10.80
2022-09-17T18:03:29.111Z,10.76
2022-09-17T18:06:00.578Z,10.77
2022-09-17T18:08:32.760Z,10.74
2022-09-17T18:11:04.084Z,10.68
2022-09-17T18:13:34.348Z,10.69
2022-09-17T18:16:05.076Z,10.72
2022-09-17T18:18:42.123Z,10.75
2022-09-17T18:21:15.836Z,10.75
2022-09-17T18:23:48.270Z,10.76
2022-09-17T18:26:19.108Z,10.76
2022-09-17T18:28:48.851Z,10.71
2022-09-17T18:31:23.741Z,10.71
2022-09-17T18:33:55.727Z,10.70
2022-09-17T18:36:25.360Z,10.67
2022-09-17T18:39:24.135Z,10.69
2022-09-17T18:41:51.541Z,10.67
2022-09-17T18:44:22.029Z,10.68
2022-09-17T18:46:52.121Z,10.69
2022-09-17T18:49:21.951Z,10.69
2022-09-17T18:51:51.650Z,10.68
2022-09-17T18:54:24.020Z,10.66
2022-09-17T18:56:53.609Z,10.66
2022-09-17T18:59:23.128Z,10.64
2022-09-17T19:01:52.818Z,10.62
2022-09-17T19:04:23.026Z,10.62
2022-09-17T19:06:52.606Z,10.62
2022-09-17T19:09:24.723Z,10.64
2022-09-17T19:11:54.371Z,10.64
2022-09-17T19:14:23.955Z,10.62
2022-09-17T19:16:55.240Z,10.63
2022-09-17T19:19:24.816Z,10.68
2022-09-17T19:21:54.561Z,10.65
2022-09-17T19:24:26.770Z,10.67
2022-09-17T19:26:56.327Z,10.68
2022-09-17T19:29:26.004Z,10.67
2022-09-17T19:31:56.218Z,10.65
2022-09-17T19:34:25.934Z,10.65
2022-09-17T19:36:55.883Z,10.67
2022-09-17T19:39:28.229Z,10.68
2022-09-17T19:41:58.070Z,10.67
2022-09-17T19:44:31.153Z,10.68
2022-09-17T19:47:01.079Z,10.68
2022-09-17T19:49:31.469Z,10.68
2022-09-17T19:52:01.700Z,10.66
2022-09-17T19:54:34.084Z,10.68
2022-09-17T19:57:04.218Z,10.69
2022-09-17T19:59:34.020Z,10.68
2022-09-17T20:02:03.700Z,10.71
2022-09-17T20:04:34.301Z,10.72
2022-09-17T20:07:04.616Z,10.71
2022-09-17T20:09:36.970Z,10.73
2022-09-17T20:12:07.223Z,10.77
2022-09-17T20:14:36.991Z,10.79
2022-09-17T20:17:06.834Z,10.80
2022-09-17T20:19:36.360Z,10.81
2022-09-17T20:22:06.117Z,10.79
2022-09-17T20:24:38.306Z,10.81
2022-09-17T20:27:08.091Z,10.79
2022-09-17T20:29:37.706Z,10.81
2022-09-17T20:32:07.450Z,10.78
2022-09-17T20:34:37.029Z,10.75
2022-09-17T20:37:13.032Z,10.74
2022-09-17T20:39:45.502Z,10.74
2022-09-17T20:42:15.071Z,10.71
2022-09-17T20:44:44.597Z,10.69
2022-09-17T20:47:14.212Z,10.67
2022-09-17T20:49:43.803Z,10.66
2022-09-17T20:52:14.470Z,10.64
2022-09-17T20:54:48.979Z,10.63
2022-09-17T20:57:18.551Z,10.65
2022-09-17T20:59:53.423Z,10.65
2022-09-17T21:02:25.433Z,10.60
2022-09-17T21:04:55.202Z,10.51
2022-09-17T21:07:24.928Z,10.51
2022-09-17T21:09:57.076Z,10.50
2022-09-17T21:12:27.730Z,10.47
2022-09-17T21:14:57.307Z,10.44
2022-09-17T21:17:27.163Z,10.42
2022-09-17T21:19:57.811Z,10.35
2022-09-17T21:22:27.315Z,10.34
2022-09-17T21:24:59.485Z,10.34
2022-09-17T21:27:29.015Z,10.33
2022-09-17T21:29:58.556Z,10.33
2022-09-17T21:32:28.133Z,10.33
2022-09-17T21:34:57.728Z,10.33
2022-09-17T21:37:27.440Z,10.33
2022-09-17T21:39:59.682Z,10.34
2022-09-17T21:42:29.254Z,10.33
2022-09-17T21:44:58.784Z,10.32
2022-09-17T21:47:28.328Z,10.33
2022-09-17T21:49:57.888Z,10.33
2022-09-17T21:52:28.197Z,10.35
2022-09-17T21:55:00.363Z,10.34
2022-09-17T21:57:30.996Z,10.34
2022-09-17T22:00:00.522Z,10.35
2022-09-17T22:02:32.521Z,10.36
2022-09-17T22:05:02.439Z,10.36
2022-09-17T22:07:32.498Z,10.38
2022-09-17T22:10:04.680Z,10.38
2022-09-17T22:12:34.235Z,10.37
2022-09-17T22:15:04.328Z,10.40
2022-09-17T22:17:33.888Z,10.40
2022-09-17T22:20:03.659Z,10.42
2022-09-17T22:22:33.270Z,10.41
2022-09-17T22:25:05.480Z,10.41
2022-09-17T22:27:35.133Z,10.43
2022-09-17T22:30:04.697Z,10.44
2022-09-17T22:32:34.294Z,10.43
2022-09-17T22:35:03.937Z,10.45
2022-09-17T22:37:33.481Z,10.44
2022-09-17T22:40:06.072Z,10.46
2022-09-17T22:42:35.803Z,10.43
2022-09-17T22:45:07.843Z,10.44
2022-09-17T22:47:37.460Z,10.42
2022-09-17T22:50:08.010Z,10.41
2022-09-17T22:52:37.840Z,10.40
2022-09-17T22:55:10.583Z,10.41
2022-09-17T22:57:40.180Z,10.42
2022-09-17T23:00:12.749Z,10.42
2022-09-17T23:02:42.383Z,10.40
2022-09-17T23:05:12.130Z,10.42
2022-09-17T23:07:41.748Z,10.41
2022-09-17T23:10:14.004Z,10.42
2022-09-17T23:12:43.660Z,10.41
2022-09-17T23:15:13.321Z,10.40
2022-09-17T23:17:42.878Z,10.40
2022-09-17T23:20:12.972Z,10.40
2022-09-17T23:22:42.629Z,10.40
2022-09-17T23:25:14.984Z,10.40
2022-09-17T23:27:44.609Z,10.40
2022-09-17T23:30:14.843Z,10.40
2022-09-17T23:32:44.472Z,10.41
2022-09-17T23:35:14.337Z,10.44
2022-09-17T23:37:43.929Z,10.46
2022-09-17T23:40:16.316Z,10.43
2022-09-17T23:42:46.160Z,10.40
2022-09-17T23:45:15.891Z,10.40
2022-09-17T23:47:45.709Z,10.38
2022-09-17T23:50:15.410Z,10.45
2022-09-17T23:52:44.961Z,10.39
2022-09-17T23:55:17.117Z,10.40
2022-09-17T23:57:46.765Z,10.40
